Time;durP1;ratioP1;P1;durP2;ratioP2;P2;SDS_P1;SDS_P2;PMS_P1;PMS_P2;Temp;Humidity;BMP_temperature;BMP_pressure;BME280_temperature;BME280_humidity;BME280_pressure;Samples;Min_cycle;Max_cycle;Signal;HPM_P1;HPM_P2
2023/05/04 00:01:52;;;;;;;10.98;5.88;;;6.30;99.90;;;;;;5010196;28;20053;-65
2023/05/04 00:04:18;;;;;;;12.43;5.35;;;6.30;99.90;;;;;;5008092;28;20037;-65
2023/05/04 00:06:43;;;;;;;11.30;5.88;;;6.30;99.90;;;;;;4983877;28;20058;-65
2023/05/04 00:09:14;;;;;;;14.02;6.38;;;6.30;99.90;;;;;;4997732;28;20052;-65
2023/05/04 00:11:40;;;;;;;16.02;6.43;;;6.30;99.90;;;;;;5009054;28;20049;-65
2023/05/04 00:14:06;;;;;;;12.57;5.55;;;6.20;99.90;;;;;;5012036;28;20100;-65
2023/05/04 00:16:33;;;;;;;11.70;6.07;;;6.20;99.90;;;;;;4999396;28;20094;-65
2023/05/04 00:18:59;;;;;;;12.60;6.90;;;6.20;99.90;;;;;;5025277;28;20038;-65
2023/05/04 00:21:25;;;;;;;14.75;6.07;;;6.20;99.90;;;;;;5009202;28;20045;-65
2023/05/04 00:23:51;;;;;;;9.55;5.78;;;6.20;99.90;;;;;;5010035;28;20041;-65
2023/05/04 00:26:16;;;;;;;12.20;6.78;;;6.20;99.90;;;;;;4994192;28;20053;-65
2023/05/04 00:28:42;;;;;;;12.90;6.43;;;6.20;99.90;;;;;;5008555;28;20144;-65
2023/05/04 00:31:08;;;;;;;9.07;5.95;;;6.20;99.90;;;;;;4998352;28;20138;-65
2023/05/04 00:33:33;;;;;;;11.48;6.03;;;6.20;99.90;;;;;;5009120;28;20265;-65
2023/05/04 00:36:02;;;;;;;10.88;6.18;;;6.10;99.90;;;;;;5009278;28;20045;-65
2023/05/04 00:38:28;;;;;;;12.13;5.75;;;6.20;99.90;;;;;;4990396;28;20072;-65
2023/05/04 00:40:53;;;;;;;12.43;6.43;;;6.10;99.90;;;;;;4997908;28;20056;-65
2023/05/04 00:43:19;;;;;;;12.45;6.80;;;6.10;99.90;;;;;;5008555;28;20045;-65
2023/05/04 00:45:45;;;;;;;10.35;6.22;;;6.10;99.90;;;;;;5008084;28;20072;-65
2023/05/04 00:48:11;;;;;;;11.35;6.30;;;6.00;99.90;;;;;;5022711;28;20060;-65
2023/05/04 00:50:36;;;;;;;13.27;6.35;;;6.00;99.90;;;;;;5010002;28;20057;-65
2023/05/04 00:53:08;;;;;;;12.35;6.78;;;6.00;99.90;;;;;;4999745;28;20199;-65
2023/05/04 00:55:37;;;;;;;8.70;6.25;;;6.00;99.90;;;;;;5024194;28;20611;-65
2023/05/04 00:58:02;;;;;;;12.60;6.57;;;5.90;99.90;;;;;;5009380;28;20049;-65
2023/05/04 01:00:28;;;;;;;11.65;6.60;;;5.90;99.90;;;;;;4993643;28;20049;-64
2023/05/04 01:02:54;;;;;;;9.82;6.88;;;5.90;99.90;;;;;;5003494;28;20056;-64
2023/05/04 01:05:20;;;;;;;11.10;6.80;;;5.90;99.90;;;;;;4991658;28;20072;-65
2023/05/04 01:08:05;;;;;;;13.70;6.20;;;5.90;99.90;;;;;;4987171;28;20053;-64
2023/05/04 01:10:51;;;;;;;12.00;6.78;;;5.90;99.90;;;;;;5003443;28;20446;-65
2023/05/04 01:13:20;;;;;;;12.88;7.00;;;5.90;99.90;;;;;;5008882;28;20061;-65
2023/05/04 01:15:47;;;;;;;12.18;7.10;;;5.80;99.90;;;;;;4981034;28;20045;-64
2023/05/04 01:18:13;;;;;;;12.88;6.80;;;5.80;99.90;;;;;;5005400;28;20049;-64
2023/05/04 01:20:39;;;;;;;16.30;6.93;;;5.80;99.90;;;;;;4984084;28;20052;-64
2023/05/04 01:23:05;;;;;;;11.52;7.32;;;5.70;99.90;;;;;;5002314;28;20336;-64
2023/05/04 01:25:54;;;;;;;14.30;6.95;;;5.80;99.90;;;;;;4987443;28;20045;-64
2023/05/04 01:28:31;;;;;;;12.27;6.43;;;5.70;99.90;;;;;;5021680;28;20042;-65
2023/05/04 01:31:00;;;;;;;12.65;7.47;;;5.70;99.90;;;;;;5002321;28;20885;-64
2023/05/04 01:33:30;;;;;;;11.20;6.35;;;5.70;99.90;;;;;;5004552;28;20050;-64
2023/05/04 01:35:56;;;;;;;13.32;6.55;;;5.70;99.90;;;;;;5004013;28;20045;-64
2023/05/04 01:38:22;;;;;;;13.82;7.35;;;5.70;99.90;;;;;;4988462;28;20043;-64
2023/05/04 01:40:48;;;;;;;13.20;6.97;;;5.70;99.90;;;;;;5003599;28;20174;-64
2023/05/04 01:43:13;;;;;;;14.00;6.82;;;5.70;99.90;;;;;;4993636;28;20057;-64
2023/05/04 01:45:39;;;;;;;15.02;6.63;;;5.70;99.90;;;;;;5004720;28;20378;-64
2023/05/04 01:48:05;;;;;;;12.43;6.82;;;5.70;99.90;;;;;;5003550;28;20046;-64
2023/05/04 01:50:31;;;;;;;10.80;6.07;;;5.70;99.90;;;;;;5002432;28;20091;-64
2023/05/04 01:52:57;;;;;;;16.25;6.70;;;5.70;99.90;;;;;;5003666;28;20223;-64
2023/05/04 01:55:22;;;;;;;16.67;6.38;;;5.70;99.90;;;;;;5010326;28;20046;-64
2023/05/04 01:57:48;;;;;;;15.88;7.22;;;5.70;99.90;;;;;;5010939;28;20144;-64
2023/05/04 02:00:15;;;;;;;12.60;6.82;;;5.70;99.90;;;;;;5011452;28;20116;-64
2023/05/04 02:02:40;;;;;;;12.70;6.95;;;5.70;99.90;;;;;;5010144;28;20041;-64
2023/05/04 02:05:06;;;;;;;11.45;6.80;;;5.60;99.90;;;;;;5012334;28;20534;-64
2023/05/04 02:07:32;;;;;;;14.07;7.07;;;5.60;99.90;;;;;;4999565;28;20042;-64
2023/05/04 02:09:58;;;;;;;13.23;6.97;;;5.60;99.90;;;;;;5011565;28;20057;-64
2023/05/04 02:12:24;;;;;;;16.10;7.10;;;5.60;99.90;;;;;;5013608;28;20107;-64
2023/05/04 02:14:49;;;;;;;16.73;7.25;;;5.60;99.90;;;;;;5010031;28;20129;-64
2023/05/04 02:17:15;;;;;;;14.35;7.07;;;5.60;99.90;;;;;;4999589;28;20042;-64
2023/05/04 02:19:41;;;;;;;12.88;7.25;;;5.60;99.90;;;;;;5009884;28;20061;-65
2023/05/04 02:22:06;;;;;;;11.15;6.43;;;5.60;99.90;;;;;;4985709;28;20137;-65
2023/05/04 02:24:33;;;;;;;17.02;7.82;;;5.60;99.90;;;;;;5005150;28;20041;-65
2023/05/04 02:26:58;;;;;;;14.48;6.82;;;5.60;99.90;;;;;;4997219;28;20044;-65
2023/05/04 02:29:24;;;;;;;14.15;6.93;;;5.60;99.90;;;;;;4992130;28;21735;-65
2023/05/04 02:31:50;;;;;;;11.15;6.28;;;5.60;99.90;;;;;;5000968;28;20049;-65
2023/05/04 02:34:16;;;;;;;17.33;7.40;;;5.60;99.90;;;;;;4995377;28;20045;-65
2023/05/04 02:36:41;;;;;;;12.70;6.72;;;5.60;99.90;;;;;;5012989;28;20050;-65
2023/05/04 02:39:07;;;;;;;13.18;6.90;;;5.60;99.90;;;;;;4995112;28;20131;-65
2023/05/04 02:41:33;;;;;;;14.00;6.47;;;5.60;99.90;;;;;;5012451;28;20049;-65
2023/05/04 02:43:59;;;;;;;17.75;7.22;;;5.60;99.90;;;;;;5016689;28;20270;-65
2023/05/04 02:46:25;;;;;;;11.27;6.82;;;5.60;99.90;;;;;;5013610;28;20105;-65
2023/05/04 02:48:51;;;;;;;20.40;6.78;;;5.60;99.90;;;;;;5012077;28;20056;-65
2023/05/04 02:51:18;;;;;;;18.63;7.82;;;5.60;99.90;;;;;;4999078;28;20061;-64
2023/05/04 02:53:43;;;;;;;16.65;7.25;;;5.60;99.90;;;;;;5009022;28;20458;-65
2023/05/04 02:56:09;;;;;;;13.48;6.90;;;5.60;99.90;;;;;;4999192;28;20781;-64
2023/05/04 02:58:35;;;;;;;15.43;7.13;;;5.60;99.90;;;;;;5009678;28;21921;-64
2023/05/04 03:01:01;;;;;;;15.98;7.45;;;5.60;99.90;;;;;;5000505;28;20040;-64
2023/05/04 03:03:26;;;;;;;13.07;7.47;;;5.60;99.90;;;;;;5012857;28;20553;-64
2023/05/04 03:05:52;;;;;;;13.88;7.80;;;5.60;99.90;;;;;;5009390;28;20053;-65
2023/05/04 03:08:18;;;;;;;17.73;8.52;;;5.60;99.90;;;;;;5016471;28;20070;-65
2023/05/04 03:10:44;;;;;;;15.38;7.60;;;5.60;99.90;;;;;;5002297;28;20068;-65
2023/05/04 03:13:10;;;;;;;17.05;8.65;;;5.60;99.90;;;;;;5015569;28;20089;-65
2023/05/04 03:15:35;;;;;;;14.43;7.45;;;5.60;99.90;;;;;;5013220;28;20440;-65
2023/05/04 03:18:01;;;;;;;14.57;7.90;;;5.60;99.90;;;;;;4992377;28;20374;-65
2023/05/04 03:20:28;;;;;;;13.88;7.78;;;5.60;99.90;;;;;;5013354;28;20276;-65
2023/05/04 03:22:53;;;;;;;16.55;8.15;;;5.60;99.90;;;;;;5029107;28;20056;-65
2023/05/04 03:25:19;;;;;;;17.83;8.30;;;5.50;99.90;;;;;;5012821;28;20049;-65
2023/05/04 03:27:45;;;;;;;17.15;8.48;;;5.60;99.90;;;;;;4996635;28;20060;-65
2023/05/04 03:30:11;;;;;;;15.35;8.77;;;5.50;99.90;;;;;;4997669;28;20033;-65
2023/05/04 03:32:37;;;;;;;15.88;8.45;;;5.50;99.90;;;;;;4996710;28;20077;-65
2023/05/04 03:35:03;;;;;;;13.57;8.43;;;5.50;99.90;;;;;;4981885;28;20049;-65
2023/05/04 03:37:29;;;;;;;14.63;8.48;;;5.50;99.90;;;;;;4999636;28;20056;-65
2023/05/04 03:39:54;;;;;;;15.63;8.77;;;5.50;99.90;;;;;;5024547;28;20049;-65
2023/05/04 03:42:20;;;;;;;16.98;8.35;;;5.50;99.90;;;;;;5004156;28;20080;-65
2023/05/04 03:44:46;;;;;;;14.13;8.38;;;5.50;99.90;;;;;;5005692;28;20064;-65
2023/05/04 03:47:12;;;;;;;15.75;8.50;;;5.60;99.90;;;;;;5012052;28;20107;-65
2023/05/04 03:49:38;;;;;;;18.77;8.73;;;5.60;99.90;;;;;;5008091;28;20053;-65
2023/05/04 03:52:04;;;;;;;17.63;8.80;;;5.60;99.90;;;;;;5011763;28;20048;-65
2023/05/04 03:54:29;;;;;;;15.23;8.63;;;5.60;99.90;;;;;;5014968;28;20060;-65
2023/05/04 03:56:55;;;;;;;13.68;8.57;;;5.50;99.90;;;;;;5011864;28;20059;-65
2023/05/04 03:59:21;;;;;;;17.33;8.48;;;5.50;99.90;;;;;;5001442;28;20049;-65
2023/05/04 04:01:46;;;;;;;14.57;8.55;;;5.50;99.90;;;;;;4997491;28;20049;-65
2023/05/04 04:04:12;;;;;;;16.70;8.85;;;5.50;99.90;;;;;;5015459;28;20048;-65
2023/05/04 04:06:38;;;;;;;14.07;8.38;;;5.50;99.90;;;;;;5011911;28;20088;-65
2023/05/04 04:09:04;;;;;;;13.85;8.57;;;5.50;99.90;;;;;;5011385;28;20549;-65
2023/05/04 04:11:29;;;;;;;15.02;8.35;;;5.60;99.90;;;;;;5008912;28;20123;-65
2023/05/04 04:13:55;;;;;;;14.07;8.30;;;5.60;99.90;;;;;;5011379;28;20699;-65
2023/05/04 04:16:21;;;;;;;13.93;9.23;;;5.60;99.90;;;;;;5017941;28;20073;-65
2023/05/04 04:18:47;;;;;;;17.48;8.27;;;5.60;99.90;;;;;;5012487;28;20045;-65
2023/05/04 04:21:13;;;;;;;12.05;7.82;;;5.50;99.90;;;;;;5009983;28;20042;-65
2023/05/04 04:23:39;;;;;;;13.63;8.85;;;5.60;99.90;;;;;;4993324;28;20052;-65
2023/05/04 04:26:05;;;;;;;17.52;8.70;;;5.60;99.90;;;;;;5024385;28;20528;-65
2023/05/04 04:28:34;;;;;;;18.95;8.63;;;5.60;99.90;;;;;;5013118;28;20544;-65
2023/05/04 04:31:02;;;;;;;18.38;8.88;;;5.60;99.90;;;;;;5008004;28;20066;-65
2023/05/04 04:33:27;;;;;;;17.05;8.90;;;5.60;99.90;;;;;;5008778;28;20046;-64
2023/05/04 04:35:53;;;;;;;15.20;8.05;;;5.60;99.90;;;;;;4994949;28;20133;-64
2023/05/04 04:38:20;;;;;;;21.63;9.25;;;5.60;99.90;;;;;;4988096;28;20041;-65
2023/05/04 04:40:46;;;;;;;18.23;8.63;;;5.70;99.90;;;;;;5001052;28;20455;-65
2023/05/04 04:43:11;;;;;;;16.25;9.48;;;5.70;99.90;;;;;;4984521;28;20045;-64
2023/05/04 04:45:40;;;;;;;15.40;8.82;;;5.70;99.90;;;;;;5008716;28;20049;-64
2023/05/04 04:48:05;;;;;;;14.80;8.88;;;5.70;99.90;;;;;;5008378;28;20049;-64
2023/05/04 04:50:31;;;;;;;15.85;8.77;;;5.70;99.90;;;;;;4998191;28;20053;-64
2023/05/04 04:52:57;;;;;;;15.70;9.55;;;5.70;99.90;;;;;;4994862;28;20160;-64
2023/05/04 04:55:24;;;;;;;18.35;8.80;;;5.80;99.90;;;;;;5009831;28;20057;-64
2023/05/04 04:57:51;;;;;;;17.80;9.23;;;5.80;99.90;;;;;;5007585;28;20048;-64
2023/05/04 05:00:18;;;;;;;15.77;8.95;;;5.80;99.90;;;;;;5009592;28;20109;-64
2023/05/04 05:02:44;;;;;;;17.60;9.27;;;5.80;99.90;;;;;;5012709;28;20058;-64
2023/05/04 05:05:10;;;;;;;18.25;9.82;;;5.90;99.90;;;;;;5011530;28;20104;-64
2023/05/04 05:07:36;;;;;;;18.55;9.18;;;5.90;99.90;;;;;;5008126;28;20386;-64
2023/05/04 05:10:02;;;;;;;21.73;9.13;;;5.90;99.90;;;;;;5013833;28;20049;-64
2023/05/04 05:12:27;;;;;;;17.58;9.52;;;6.00;99.90;;;;;;5012472;28;20046;-64
2023/05/04 05:14:53;;;;;;;16.30;9.15;;;6.00;99.90;;;;;;4984517;28;20110;-64
2023/05/04 05:17:19;;;;;;;17.90;8.82;;;6.00;99.90;;;;;;4984125;28;20041;-65
2023/05/04 05:19:45;;;;;;;22.17;9.43;;;6.10;99.90;;;;;;5000674;28;20042;-64
2023/05/04 05:22:11;;;;;;;19.83;9.07;;;6.10;99.90;;;;;;5000225;28;20046;-65
2023/05/04 05:24:37;;;;;;;21.50;8.88;;;6.20;99.90;;;;;;5009519;28;20052;-65
2023/05/04 05:27:03;;;;;;;23.92;9.30;;;6.20;99.90;;;;;;5012205;28;20055;-65
2023/05/04 05:29:29;;;;;;;17.40;8.98;;;6.20;99.90;;;;;;5003346;28;20071;-65
2023/05/04 05:31:55;;;;;;;16.38;8.75;;;6.30;99.90;;;;;;5002528;28;20052;-65
2023/05/04 05:34:20;;;;;;;22.52;8.98;;;6.30;99.90;;;;;;5010591;28;20123;-65
2023/05/04 05:36:47;;;;;;;19.02;8.48;;;6.40;99.90;;;;;;5007597;28;20045;-65
2023/05/04 05:39:14;;;;;;;19.13;8.00;;;6.40;99.90;;;;;;4999156;28;20049;-65
2023/05/04 05:41:40;;;;;;;15.85;8.18;;;6.50;99.90;;;;;;4998784;28;20057;-65
2023/05/04 05:44:06;;;;;;;17.80;8.20;;;6.50;99.90;;;;;;4995828;28;20112;-65
2023/05/04 05:46:32;;;;;;;19.45;8.68;;;6.50;99.90;;;;;;5002878;28;20117;-65
2023/05/04 05:48:58;;;;;;;14.93;7.93;;;6.60;99.90;;;;;;5012515;28;20052;-65
2023/05/04 05:51:24;;;;;;;14.90;7.57;;;6.60;99.90;;;;;;4976615;28;20590;-65
2023/05/04 05:53:50;;;;;;;16.92;8.23;;;6.70;99.90;;;;;;5004565;28;20162;-65
2023/05/04 05:56:16;;;;;;;15.73;8.10;;;6.70;99.90;;;;;;5006224;28;20042;-65
2023/05/04 05:58:42;;;;;;;16.55;8.10;;;6.80;99.90;;;;;;5010691;28;20054;-65
2023/05/04 06:01:08;;;;;;;16.55;7.78;;;6.80;99.90;;;;;;5009356;28;20045;-65
2023/05/04 06:03:33;;;;;;;20.20;8.23;;;6.90;99.90;;;;;;4987850;28;20452;-65
2023/05/04 06:05:59;;;;;;;18.30;8.15;;;6.90;99.90;;;;;;5005097;28;20084;-65
2023/05/04 06:08:25;;;;;;;18.75;8.27;;;7.00;99.90;;;;;;5004033;28;20050;-65
2023/05/04 06:10:51;;;;;;;18.63;8.18;;;7.00;99.90;;;;;;5013858;28;20086;-65
2023/05/04 06:13:17;;;;;;;16.52;8.57;;;7.10;99.90;;;;;;5016753;28;20042;-65
2023/05/04 06:15:53;;;;;;;20.67;7.78;;;7.10;99.90;;;;;;5001649;28;20068;-65
2023/05/04 06:18:19;;;;;;;15.57;7.30;;;7.20;99.90;;;;;;5019149;28;20069;-65
2023/05/04 06:20:45;;;;;;;14.93;7.50;;;7.20;99.90;;;;;;5017567;28;20395;-65
2023/05/04 06:23:11;;;;;;;15.55;7.03;;;7.30;99.90;;;;;;5015920;28;20620;-65
2023/05/04 06:25:36;;;;;;;16.65;7.70;;;7.40;99.90;;;;;;5003855;28;20041;-65
2023/05/04 06:28:02;;;;;;;13.13;7.80;;;7.40;99.90;;;;;;5012226;28;20065;-65
2023/05/04 06:30:28;;;;;;;15.88;7.90;;;7.50;99.90;;;;;;5012301;28;20339;-65
2023/05/04 06:32:54;;;;;;;19.25;8.20;;;7.60;99.90;;;;;;5000406;28;20046;-65
2023/05/04 06:35:19;;;;;;;18.75;7.78;;;7.60;99.90;;;;;;4998531;28;20060;-65
2023/05/04 06:37:45;;;;;;;15.77;7.65;;;7.70;99.90;;;;;;5011349;28;20824;-65
2023/05/04 06:40:11;;;;;;;15.90;7.40;;;7.80;99.90;;;;;;5013116;28;20164;-65
2023/05/04 06:42:37;;;;;;;15.55;7.80;;;7.90;99.90;;;;;;4984547;28;20554;-65
2023/05/04 06:45:03;;;;;;;17.55;7.60;;;8.00;99.90;;;;;;4968578;28;20057;-65
2023/05/04 06:47:29;;;;;;;15.65;8.05;;;8.00;99.90;;;;;;5002557;28;20489;-65
2023/05/04 06:49:55;;;;;;;15.27;7.43;;;8.10;99.90;;;;;;4992719;28;20091;-65
2023/05/04 06:52:21;;;;;;;14.93;7.38;;;8.20;99.90;;;;;;4997006;28;20049;-65
2023/05/04 06:54:46;;;;;;;17.15;7.32;;;8.30;99.90;;;;;;5017424;28;20051;-65
2023/05/04 06:57:12;;;;;;;15.27;7.80;;;8.40;99.90;;;;;;4999648;28;20049;-65
2023/05/04 06:59:38;;;;;;;13.45;7.63;;;8.40;99.90;;;;;;5017452;28;20044;-65
2023/05/04 07:02:03;;;;;;;15.50;7.20;;;8.50;99.90;;;;;;5036646;28;20053;-65
2023/05/04 07:04:30;;;;;;;14.95;7.93;;;8.60;99.90;;;;;;5017463;28;20067;-65
2023/05/04 07:06:56;;;;;;;15.30;7.50;;;8.60;99.90;;;;;;5017884;28;20053;-65
2023/05/04 07:09:22;;;;;;;17.70;8.02;;;8.70;99.90;;;;;;5003201;28;20179;-65
2023/05/04 07:11:47;;;;;;;13.43;7.50;;;8.80;99.90;;;;;;5001997;28;20136;-65
2023/05/04 07:14:14;;;;;;;15.10;7.47;;;8.90;99.90;;;;;;5004830;28;20042;-65
2023/05/04 07:16:40;;;;;;;16.25;7.60;;;9.00;99.90;;;;;;5009857;28;20135;-65
2023/05/04 07:19:06;;;;;;;15.43;8.15;;;9.20;99.90;;;;;;5008487;28;20548;-65
2023/05/04 07:21:32;;;;;;;16.75;7.18;;;9.30;99.90;;;;;;4976648;28;20066;-65
2023/05/04 07:23:57;;;;;;;11.23;7.07;;;9.40;99.90;;;;;;5006700;28;20037;-65
2023/05/04 07:26:23;;;;;;;20.00;8.35;;;9.50;99.90;;;;;;4981205;28;20033;-65
2023/05/04 07:28:49;;;;;;;15.02;7.47;;;9.60;99.90;;;;;;5008948;28;20077;-65
2023/05/04 07:31:15;;;;;;;17.42;7.30;;;9.70;99.90;;;;;;4996496;28;20050;-65
2023/05/04 07:33:41;;;;;;;11.45;6.13;;;9.90;99.90;;;;;;5003039;28;20405;-65
2023/05/04 07:36:07;;;;;;;12.88;6.03;;;9.90;99.90;;;;;;4994374;28;20046;-65
2023/05/04 07:38:33;;;;;;;13.20;6.38;;;10.00;99.90;;;;;;4998517;28;20369;-65
2023/05/04 07:40:58;;;;;;;11.43;6.05;;;10.10;99.90;;;;;;4994132;28;20084;-65
2023/05/04 07:43:24;;;;;;;17.25;6.65;;;10.10;99.90;;;;;;5008709;28;20053;-65
2023/05/04 07:45:52;;;;;;;10.90;5.80;;;10.20;99.90;;;;;;5004651;28;20106;-65
2023/05/04 07:48:18;;;;;;;13.88;6.18;;;10.20;99.90;;;;;;5004876;28;20109;-65
2023/05/04 07:50:44;;;;;;;13.38;7.15;;;10.20;99.90;;;;;;5003691;28;20046;-65
2023/05/04 07:53:09;;;;;;;12.35;7.00;;;10.30;99.90;;;;;;5006192;28;20045;-65
2023/05/04 07:55:35;;;;;;;11.20;6.38;;;10.30;99.90;;;;;;4994771;28;20100;-65
2023/05/04 07:58:02;;;;;;;15.38;6.50;;;10.40;99.90;;;;;;5001987;28;20176;-65
2023/05/04 08:00:27;;;;;;;12.38;6.65;;;10.50;99.90;;;;;;4998669;28;20053;-65
2023/05/04 08:02:53;;;;;;;16.70;7.10;;;10.60;99.90;;;;;;5005219;28;20042;-65
2023/05/04 08:05:19;;;;;;;12.50;6.65;;;10.70;99.90;;;;;;4992572;28;20053;-65
2023/05/04 08:07:45;;;;;;;18.10;6.63;;;10.90;99.90;;;;;;4989365;28;20057;-65
2023/05/04 08:10:11;;;;;;;12.68;5.82;;;11.00;99.90;;;;;;4987913;28;20067;-65
2023/05/04 08:12:39;;;;;;;18.25;7.47;;;11.10;99.90;;;;;;4996402;28;20037;-65
2023/05/04 08:15:06;;;;;;;15.95;6.97;;;11.30;99.90;;;;;;4986716;28;20046;-65
2023/05/04 08:17:33;;;;;;;12.73;6.93;;;11.40;99.90;;;;;;5004199;28;20042;-65
2023/05/04 08:20:00;;;;;;;15.48;6.60;;;11.50;99.90;;;;;;5007871;28;20046;-65
2023/05/04 08:22:26;;;;;;;16.30;6.55;;;11.60;99.90;;;;;;5004702;28;20072;-65
2023/05/04 08:24:52;;;;;;;12.13;6.35;;;11.70;99.90;;;;;;5003492;28;20141;-65
2023/05/04 08:27:17;;;;;;;13.18;6.20;;;11.70;99.90;;;;;;5007952;28;20065;-65
2023/05/04 08:29:43;;;;;;;13.48;6.15;;;11.80;99.90;;;;;;4993916;28;20093;-65
2023/05/04 08:32:09;;;;;;;11.77;6.05;;;11.80;99.90;;;;;;5012989;28;20159;-65
2023/05/04 08:34:35;;;;;;;11.27;6.30;;;12.00;99.90;;;;;;4998739;28;20046;-65
2023/05/04 08:37:01;;;;;;;14.65;6.47;;;12.00;99.90;;;;;;4988671;28;20050;-65
2023/05/04 08:39:27;;;;;;;11.57;7.03;;;12.20;99.90;;;;;;5004724;28;20104;-65
2023/05/04 08:41:52;;;;;;;13.07;6.25;;;12.30;99.90;;;;;;5007681;28;20046;-65
2023/05/04 08:44:21;;;;;;;14.02;6.72;;;12.30;99.90;;;;;;4991782;28;20061;-65
2023/05/04 08:46:52;;;;;;;13.48;6.85;;;12.40;99.90;;;;;;5003668;28;20050;-65
2023/05/04 08:49:23;;;;;;;16.37;7.10;;;12.40;99.90;;;;;;5009339;28;20561;-65
2023/05/04 08:51:49;;;;;;;10.32;6.30;;;12.50;99.90;;;;;;5008493;28;20077;-65
2023/05/04 08:54:16;;;;;;;12.20;6.57;;;12.50;99.90;;;;;;4998722;28;20046;-65
2023/05/04 08:56:44;;;;;;;12.65;6.63;;;12.70;99.90;;;;;;5001547;28;20113;-65
2023/05/04 08:59:20;;;;;;;15.23;6.40;;;12.80;99.90;;;;;;4992232;28;20133;-65
2023/05/04 09:01:51;;;;;;;10.85;6.72;;;12.90;99.90;;;;;;5006898;28;20044;-65
2023/05/04 09:04:19;;;;;;;12.50;6.28;;;13.10;99.90;;;;;;4993792;28;20097;-65
2023/05/04 09:06:46;;;;;;;12.00;5.97;;;13.20;99.90;;;;;;4991132;28;20065;-65
2023/05/04 09:09:12;;;;;;;14.80;6.70;;;13.40;99.90;;;;;;4989246;28;20072;-65
2023/05/04 09:11:39;;;;;;;12.55;6.25;;;13.50;99.90;;;;;;5001003;28;20512;-65
2023/05/04 09:14:05;;;;;;;15.07;5.97;;;13.70;99.90;;;;;;4990924;28;20053;-65
2023/05/04 09:16:35;;;;;;;11.88;6.00;;;13.80;99.90;;;;;;5000847;28;20200;-65
2023/05/04 09:19:02;;;;;;;15.05;6.00;;;13.90;99.90;;;;;;4998005;28;20406;-65
2023/05/04 09:21:29;;;;;;;13.77;6.10;;;14.00;99.90;;;;;;4999171;28;20178;-65
2023/05/04 09:23:55;;;;;;;13.02;6.00;;;14.10;99.90;;;;;;4997949;28;20054;-66
2023/05/04 09:26:31;;;;;;;9.90;5.57;;;14.20;99.90;;;;;;5001210;28;20053;-66
2023/05/04 09:29:10;;;;;;;10.57;5.70;;;14.30;99.90;;;;;;5001493;28;20056;-66
2023/05/04 09:31:46;;;;;;;9.35;4.75;;;14.30;99.90;;;;;;4989005;28;20056;-66
2023/05/04 09:34:13;;;;;;;13.27;6.22;;;14.50;99.90;;;;;;4987525;28;20452;-65
2023/05/04 09:36:40;;;;;;;8.07;5.45;;;14.60;99.90;;;;;;4999246;28;20072;-65
2023/05/04 09:39:14;;;;;;;18.50;5.78;;;14.70;99.60;;;;;;5000573;28;20451;-65
2023/05/04 09:41:41;;;;;;;13.18;5.35;;;14.90;99.60;;;;;;5005770;28;20117;-65
2023/05/04 09:44:21;;;;;;;12.82;5.15;;;15.10;99.50;;;;;;5001006;28;20052;-65
2023/05/04 09:46:57;;;;;;;11.23;5.28;;;15.20;98.70;;;;;;5005244;28;20042;-65
2023/05/04 09:49:37;;;;;;;11.18;6.03;;;15.40;98.70;;;;;;5008056;28;20042;-66
2023/05/04 09:52:05;;;;;;;13.43;5.78;;;15.50;98.50;;;;;;4990731;28;20069;-66
2023/05/04 09:54:37;;;;;;;12.43;5.60;;;15.70;98.20;;;;;;4999977;28;20188;-66
2023/05/04 09:57:12;;;;;;;11.02;5.70;;;15.80;97.90;;;;;;4991799;28;20046;-66
2023/05/04 09:59:39;;;;;;;11.70;5.82;;;15.90;98.00;;;;;;5010672;28;20048;-65
2023/05/04 10:02:06;;;;;;;21.00;5.78;;;16.10;97.90;;;;;;5004819;28;20085;-66
2023/05/04 10:04:33;;;;;;;11.52;5.40;;;16.20;97.30;;;;;;5005177;28;20079;-65
2023/05/04 10:07:04;;;;;;;13.27;5.82;;;16.30;96.90;;;;;;4998823;28;20061;-66
2023/05/04 10:09:30;;;;;;;11.77;5.40;;;16.40;96.70;;;;;;5008963;28;20049;-65
2023/05/04 10:12:00;;;;;;;9.32;5.65;;;16.60;96.90;;;;;;5004277;28;20037;-65
2023/05/04 10:14:30;;;;;;;10.25;5.88;;;16.70;96.50;;;;;;5000797;28;20055;-66
2023/05/04 10:17:25;;;;;;;11.23;5.40;;;16.80;95.50;;;;;;5013831;28;20057;-65
2023/05/04 10:20:19;;;;;;;7.97;4.88;;;16.90;94.60;;;;;;5013001;28;20049;-65
2023/05/04 10:23:02;;;;;;;9.90;5.22;;;16.90;94.60;;;;;;5012434;28;20045;-65
2023/05/04 10:26:04;;;;;;;8.15;4.88;;;17.00;94.30;;;;;;5014009;28;20048;-65
2023/05/04 10:28:39;;;;;;;11.55;4.90;;;17.10;92.70;;;;;;5012065;28;20053;-65
2023/05/04 10:31:06;;;;;;;11.50;4.80;;;17.20;93.00;;;;;;5017036;28;20069;-65
2023/05/04 10:33:39;;;;;;;7.78;4.60;;;17.20;93.10;;;;;;5012997;28;20075;-65
2023/05/04 10:36:05;;;;;;;10.77;5.03;;;17.30;91.90;;;;;;5013122;28;20045;-65
2023/05/04 10:38:35;;;;;;;11.80;4.95;;;17.50;92.50;;;;;;5015486;28;20831;-66
2023/05/04 10:41:18;;;;;;;7.43;4.40;;;17.70;92.40;;;;;;5014913;28;20053;-65
2023/05/04 10:43:52;;;;;;;12.00;5.03;;;17.90;92.60;;;;;;5019895;28;20038;-66
2023/05/04 10:46:22;;;;;;;14.82;5.35;;;18.10;92.00;;;;;;4987551;28;20041;-66
2023/05/04 10:48:49;;;;;;;9.65;4.85;;;18.30;90.60;;;;;;4995798;28;20551;-66
2023/05/04 10:51:20;;;;;;;9.98;5.55;;;18.30;90.40;;;;;;5017017;28;20061;-66
2023/05/04 10:53:46;;;;;;;13.88;5.25;;;18.40;90.60;;;;;;5011001;28;20049;-66
2023/05/04 10:56:22;;;;;;;12.55;4.95;;;18.50;89.80;;;;;;5017634;28;20049;-66
2023/05/04 10:58:49;;;;;;;10.13;4.88;;;18.60;87.00;;;;;;5010467;28;20099;-66
2023/05/04 11:01:15;;;;;;;7.55;4.72;;;18.60;87.10;;;;;;5009259;28;20499;-66
2023/05/04 11:03:41;;;;;;;7.82;4.35;;;18.70;87.70;;;;;;5011645;28;20488;-66
2023/05/04 11:06:27;;;;;;;7.78;4.60;;;18.90;88.80;;;;;;4999550;28;20076;-66
2023/05/04 11:09:05;;;;;;;9.07;4.47;;;19.10;86.60;;;;;;5002604;28;22031;-66
2023/05/04 11:11:36;;;;;;;7.28;4.32;;;19.10;81.70;;;;;;5000417;28;20042;-66
2023/05/04 11:14:02;;;;;;;14.43;4.90;;;19.10;81.20;;;;;;5002036;28;20037;-66
2023/05/04 11:16:28;;;;;;;7.68;5.07;;;19.10;81.30;;;;;;4999653;28;20432;-66
2023/05/04 11:18:54;;;;;;;10.60;4.38;;;19.20;81.20;;;;;;5005197;28;20779;-66
2023/05/04 11:21:26;;;;;;;11.15;4.80;;;19.40;81.60;;;;;;5012526;28;20109;-66
2023/05/04 11:23:59;;;;;;;9.82;5.35;;;19.60;79.40;;;;;;5015430;28;20042;-66
2023/05/04 11:26:27;;;;;;;6.88;4.53;;;19.70;78.10;;;;;;5011343;28;20038;-66
2023/05/04 11:28:52;;;;;;;11.60;4.75;;;19.80;78.10;;;;;;5008377;28;20064;-66
2023/05/04 11:31:20;;;;;;;8.13;4.60;;;19.80;75.60;;;;;;5026643;28;20109;-66
2023/05/04 11:33:51;;;;;;;10.65;4.70;;;19.90;75.60;;;;;;5008992;28;20042;-66
2023/05/04 11:36:17;;;;;;;10.45;4.32;;;19.90;74.40;;;;;;5011054;28;20050;-66
2023/05/04 11:38:44;;;;;;;9.18;4.43;;;20.00;74.30;;;;;;5003193;28;20205;-66
2023/05/04 11:41:11;;;;;;;8.15;4.65;;;20.10;74.20;;;;;;5017417;28;20038;-66
2023/05/04 11:43:38;;;;;;;12.25;4.90;;;20.30;73.50;;;;;;5009188;28;20046;-66
2023/05/04 11:46:06;;;;;;;10.90;4.90;;;20.50;72.30;;;;;;4999224;28;20049;-66
2023/05/04 11:48:33;;;;;;;8.20;4.78;;;20.50;71.50;;;;;;5012967;28;20049;-66
2023/05/04 11:50:59;;;;;;;11.07;4.90;;;20.50;70.50;;;;;;4995788;28;20109;-66
2023/05/04 11:53:25;;;;;;;7.82;4.57;;;20.50;70.90;;;;;;5010365;28;20046;-66
2023/05/04 11:55:53;;;;;;;10.50;4.60;;;20.50;70.00;;;;;;4993353;28;20128;-66
2023/05/04 11:58:26;;;;;;;11.23;4.88;;;20.50;70.30;;;;;;4982108;28;20107;-66
2023/05/04 12:00:56;;;;;;;9.90;4.93;;;20.50;68.40;;;;;;5011176;28;20046;-66
2023/05/04 12:03:27;;;;;;;10.45;4.97;;;20.60;69.00;;;;;;4989363;28;20049;-66
2023/05/04 12:05:55;;;;;;;8.95;4.40;;;20.60;68.20;;;;;;5012171;28;20432;-66
2023/05/04 12:08:31;;;;;;;10.80;4.95;;;20.60;68.10;;;;;;4986374;28;20137;-66
2023/05/04 12:11:19;;;;;;;14.50;4.47;;;20.70;68.40;;;;;;5003316;28;20046;-66
2023/05/04 12:14:00;;;;;;;8.52;4.93;;;20.90;68.20;;;;;;5008921;28;20050;-66
2023/05/04 12:16:26;;;;;;;10.02;4.75;;;21.10;68.10;;;;;;4993707;28;20129;-66
2023/05/04 12:19:04;;;;;;;11.05;4.65;;;21.30;67.50;;;;;;5000424;28;20080;-66
2023/05/04 12:21:30;;;;;;;9.02;4.35;;;21.40;67.30;;;;;;4975654;28;20052;-66
2023/05/04 12:23:59;;;;;;;8.32;4.20;;;21.50;64.90;;;;;;4994058;28;20053;-66
2023/05/04 12:26:25;;;;;;;7.70;4.22;;;21.40;63.50;;;;;;4994225;28;20046;-66
2023/05/04 12:28:51;;;;;;;9.05;4.50;;;21.50;62.80;;;;;;4992973;28;20042;-66
2023/05/04 12:31:17;;;;;;;9.48;4.70;;;21.60;63.80;;;;;;4999332;28;20048;-66
2023/05/04 12:33:44;;;;;;;11.27;4.68;;;21.80;63.80;;;;;;4985479;28;20819;-66
2023/05/04 12:36:10;;;;;;;8.13;4.65;;;21.90;63.60;;;;;;4996897;28;20049;-66
2023/05/04 12:38:36;;;;;;;7.10;4.55;;;21.90;62.10;;;;;;4987170;28;20041;-66
2023/05/04 12:41:03;;;;;;;9.23;5.18;;;21.80;60.70;;;;;;5000401;28;20409;-66
2023/05/04 12:43:29;;;;;;;7.13;4.60;;;21.80;60.60;;;;;;5000099;28;20455;-66
2023/05/04 12:45:56;;;;;;;7.97;4.68;;;21.90;62.00;;;;;;5004484;28;20052;-66